AAY2721 KSGF-KPIE
Flight info
| Callsign | AAY2721 |
|---|---|
| Flight time | 1h 47m |
| Altitude | 37000 |
| Route | ZAVEL J41 MEM MGM ACORI BANGZ2 |
| Aircraft | A319/M-SDE3FGHIRWY/LB1 |
Departure
| Time | 2026-05-07 15:39 |
|---|---|
| Airport | Springfield Branson National Airport (KSGF) |
Arrival
| Time | 2026-05-07 17:26 |
|---|---|
| Airport | St. Petersburg Clearwater International Airport (KPIE) |
| Time | Latitude | Longitude | Altitude | Speed | Heading |
|---|---|---|---|---|---|
| 2026-05-07 14:58 | 37.24078 | -93.39551 | 1269 ft | 0 kts | 224° |
| 2026-05-07 15:26 | 37.24080 | -93.39548 | 1268 ft | 3 kts | 224° |
| 2026-05-07 15:26 | 37.24100 | -93.39524 | 1274 ft | 4 kts | 224° |
| 2026-05-07 15:26 | 37.24119 | -93.39500 | 1274 ft | 4 kts | 224° |
| 2026-05-07 15:26 | 37.24123 | -93.39495 | 1272 ft | 0 kts | 224° |
| 2026-05-07 15:31 | 37.24121 | -93.39496 | 1273 ft | 0 kts | 212° |
| 2026-05-07 15:31 | 37.24119 | -93.39496 | 1273 ft | 0 kts | 200° |
| 2026-05-07 15:31 | 37.24112 | -93.39493 | 1272 ft | 1 kts | 151° |
| 2026-05-07 15:32 | 37.24110 | -93.39473 | 1269 ft | 2 kts | 83° |
| 2026-05-07 15:32 | 37.24117 | -93.39452 | 1269 ft | 3 kts | 71° |
| 2026-05-07 15:32 | 37.24125 | -93.39423 | 1269 ft | 4 kts | 66° |
| 2026-05-07 15:32 | 37.24144 | -93.39396 | 1269 ft | 5 kts | 31° |
| 2026-05-07 15:33 | 37.24177 | -93.39371 | 1270 ft | 6 kts | 41° |
| 2026-05-07 15:33 | 37.24189 | -93.39315 | 1271 ft | 7 kts | 104° |
| 2026-05-07 15:33 | 37.24169 | -93.39252 | 1274 ft | 8 kts | 111° |
| 2026-05-07 15:33 | 37.24148 | -93.39187 | 1273 ft | 8 kts | 112° |
| 2026-05-07 15:34 | 37.24126 | -93.39117 | 1275 ft | 9 kts | 111° |
| 2026-05-07 15:34 | 37.24103 | -93.39043 | 1277 ft | 9 kts | 111° |
| 2026-05-07 15:34 | 37.24078 | -93.38967 | 1279 ft | 9 kts | 111° |
| 2026-05-07 15:34 | 37.24074 | -93.38901 | 1282 ft | 7 kts | 65° |
| 2026-05-07 15:35 | 37.24119 | -93.38857 | 1282 ft | 10 kts | 31° |
| 2026-05-07 15:35 | 37.24182 | -93.38810 | 1282 ft | 12 kts | 31° |
| 2026-05-07 15:35 | 37.24257 | -93.38752 | 1282 ft | 14 kts | 32° |
| 2026-05-07 15:35 | 37.24355 | -93.38678 | 1278 ft | 19 kts | 26° |
| 2026-05-07 15:36 | 37.24488 | -93.38611 | 1276 ft | 22 kts | 21° |
| 2026-05-07 15:36 | 37.24639 | -93.38535 | 1274 ft | 25 kts | 22° |
| 2026-05-07 15:36 | 37.24803 | -93.38453 | 1275 ft | 25 kts | 21° |
| 2026-05-07 15:36 | 37.24969 | -93.38370 | 1274 ft | 26 kts | 21° |
| 2026-05-07 15:37 | 37.25133 | -93.38288 | 1274 ft | 25 kts | 22° |
| 2026-05-07 15:37 | 37.25272 | -93.38218 | 1272 ft | 11 kts | 22° |
| 2026-05-07 15:37 | 37.25327 | -93.38191 | 1272 ft | 8 kts | 22° |
| 2026-05-07 15:37 | 37.25368 | -93.38142 | 1271 ft | 9 kts | 72° |
| 2026-05-07 15:38 | 37.25349 | -93.38060 | 1274 ft | 11 kts | 114° |
| 2026-05-07 15:38 | 37.25276 | -93.38064 | 1270 ft | 22 kts | 203° |
| 2026-05-07 15:38 | 37.24849 | -93.38281 | 1277 ft | 109 kts | 201° |
| 2026-05-07 15:38 | 37.23937 | -93.38736 | 1483 ft | 156 kts | 201° |
| 2026-05-07 15:39 | 37.22914 | -93.39242 | 2278 ft | 161 kts | 202° |
| 2026-05-07 15:39 | 37.21858 | -93.39748 | 3175 ft | 166 kts | 199° |
| 2026-05-07 15:39 | 37.20637 | -93.39731 | 3652 ft | 194 kts | 159° |
| 2026-05-07 15:39 | 37.19554 | -93.38537 | 3978 ft | 225 kts | 129° |
| 2026-05-07 15:40 | 37.18592 | -93.36856 | 4452 ft | 249 kts | 124° |
| 2026-05-07 15:40 | 37.17587 | -93.34966 | 5074 ft | 268 kts | 124° |
| 2026-05-07 15:40 | 37.16544 | -93.32984 | 5936 ft | 276 kts | 124° |
| 2026-05-07 15:40 | 37.15472 | -93.30966 | 6856 ft | 281 kts | 124° |
| 2026-05-07 15:41 | 37.14368 | -93.28916 | 7695 ft | 287 kts | 125° |
| 2026-05-07 15:41 | 37.13228 | -93.26820 | 8532 ft | 294 kts | 126° |
| 2026-05-07 15:41 | 37.12055 | -93.24679 | 9340 ft | 302 kts | 126° |
| 2026-05-07 15:41 | 37.10846 | -93.22488 | 10124 ft | 311 kts | 126° |
| 2026-05-07 15:42 | 37.09562 | -93.20173 | 10430 ft | 335 kts | 126° |
| 2026-05-07 15:42 | 37.08192 | -93.17707 | 10881 ft | 352 kts | 126° |
| 2026-05-07 15:42 | 37.06783 | -93.15164 | 11574 ft | 359 kts | 126° |
| 2026-05-07 15:42 | 37.05348 | -93.12574 | 12304 ft | 365 kts | 126° |
| 2026-05-07 15:43 | 37.03891 | -93.09945 | 13020 ft | 371 kts | 126° |
| 2026-05-07 15:43 | 37.02429 | -93.07310 | 13718 ft | 377 kts | 126° |
| 2026-05-07 15:43 | 37.00920 | -93.04595 | 14369 ft | 382 kts | 126° |
| 2026-05-07 15:43 | 36.99392 | -93.01849 | 14991 ft | 387 kts | 126° |
| 2026-05-07 15:44 | 36.97844 | -92.99068 | 15616 ft | 392 kts | 126° |
| 2026-05-07 15:44 | 36.96274 | -92.96252 | 16234 ft | 397 kts | 127° |
| 2026-05-07 15:44 | 36.94688 | -92.93405 | 16836 ft | 402 kts | 127° |
| 2026-05-07 15:44 | 36.93082 | -92.90521 | 17460 ft | 406 kts | 127° |
| 2026-05-07 15:45 | 36.91460 | -92.87611 | 18085 ft | 410 kts | 127° |
| 2026-05-07 15:45 | 36.89817 | -92.84668 | 18655 ft | 415 kts | 127° |
| 2026-05-07 15:45 | 36.88153 | -92.81692 | 19189 ft | 420 kts | 127° |
| 2026-05-07 15:45 | 36.86473 | -92.78693 | 19729 ft | 424 kts | 127° |
| 2026-05-07 15:46 | 36.83060 | -92.72607 | 20802 ft | 432 kts | 128° |
| 2026-05-07 15:46 | 36.81328 | -92.69525 | 21339 ft | 436 kts | 128° |
| 2026-05-07 15:46 | 36.79578 | -92.66413 | 21875 ft | 440 kts | 128° |
| 2026-05-07 15:47 | 36.77813 | -92.63272 | 22381 ft | 444 kts | 128° |
| 2026-05-07 15:47 | 36.76031 | -92.60104 | 22900 ft | 448 kts | 128° |
| 2026-05-07 15:47 | 36.74233 | -92.56912 | 23418 ft | 452 kts | 128° |
| 2026-05-07 15:47 | 36.72413 | -92.53687 | 23883 ft | 456 kts | 128° |
| 2026-05-07 15:48 | 36.70580 | -92.50438 | 24279 ft | 459 kts | 129° |
| 2026-05-07 15:48 | 36.68736 | -92.47172 | 24691 ft | 463 kts | 129° |
| 2026-05-07 15:48 | 36.66877 | -92.43881 | 25069 ft | 466 kts | 129° |
| 2026-05-07 15:48 | 36.64996 | -92.40555 | 25467 ft | 470 kts | 130° |
| 2026-05-07 15:49 | 36.63104 | -92.37215 | 25837 ft | 474 kts | 130° |
| 2026-05-07 15:49 | 36.61199 | -92.33855 | 26200 ft | 477 kts | 130° |
| 2026-05-07 15:49 | 36.59276 | -92.30470 | 26563 ft | 481 kts | 131° |
| 2026-05-07 15:49 | 36.57336 | -92.27062 | 26926 ft | 484 kts | 131° |
| 2026-05-07 15:50 | 36.55382 | -92.23634 | 27287 ft | 488 kts | 131° |
| 2026-05-07 15:50 | 36.53411 | -92.20179 | 27646 ft | 491 kts | 131° |
| 2026-05-07 15:50 | 36.51428 | -92.16707 | 28012 ft | 494 kts | 131° |
| 2026-05-07 15:50 | 36.49453 | -92.13254 | 28363 ft | 498 kts | 132° |
| 2026-05-07 15:51 | 36.47441 | -92.09729 | 28620 ft | 502 kts | 133° |
| 2026-05-07 15:51 | 36.45403 | -92.06163 | 28779 ft | 510 kts | 134° |
| 2026-05-07 15:51 | 36.43337 | -92.02552 | 29063 ft | 515 kts | 134° |
| 2026-05-07 15:51 | 36.41250 | -91.98908 | 29376 ft | 519 kts | 134° |
| 2026-05-07 15:52 | 36.39151 | -91.95245 | 29692 ft | 523 kts | 134° |
| 2026-05-07 15:52 | 36.37040 | -91.91561 | 29998 ft | 526 kts | 135° |
| 2026-05-07 15:52 | 36.34908 | -91.87847 | 30283 ft | 530 kts | 135° |
| 2026-05-07 15:52 | 36.32760 | -91.84116 | 30534 ft | 533 kts | 135° |
| 2026-05-07 15:53 | 36.30601 | -91.80370 | 30803 ft | 536 kts | 136° |
| 2026-05-07 15:53 | 36.28428 | -91.76601 | 31073 ft | 538 kts | 136° |
| 2026-05-07 15:53 | 36.26246 | -91.72836 | 31339 ft | 538 kts | 137° |
| 2026-05-07 15:53 | 36.23877 | -91.69285 | 31588 ft | 533 kts | 142° |
| 2026-05-07 15:54 | 36.21451 | -91.65823 | 31839 ft | 533 kts | 143° |
| 2026-05-07 15:54 | 36.19012 | -91.62346 | 32133 ft | 534 kts | 143° |
| 2026-05-07 15:54 | 36.16578 | -91.58875 | 32508 ft | 533 kts | 144° |
| 2026-05-07 15:54 | 36.14153 | -91.55414 | 32894 ft | 532 kts | 144° |
| 2026-05-07 15:55 | 36.11729 | -91.51955 | 33267 ft | 531 kts | 144° |
| 2026-05-07 15:55 | 36.09311 | -91.48507 | 33633 ft | 531 kts | 144° |
| 2026-05-07 15:55 | 36.06889 | -91.45056 | 34012 ft | 530 kts | 144° |
| 2026-05-07 15:55 | 36.04473 | -91.41621 | 34354 ft | 529 kts | 144° |
| 2026-05-07 15:56 | 36.02091 | -91.38242 | 34670 ft | 529 kts | 144° |
| 2026-05-07 15:56 | 35.99675 | -91.34816 | 34973 ft | 528 kts | 144° |
| 2026-05-07 15:56 | 35.97264 | -91.31396 | 35256 ft | 528 kts | 144° |
| 2026-05-07 15:56 | 35.94853 | -91.27978 | 35537 ft | 528 kts | 144° |
| 2026-05-07 15:57 | 35.92442 | -91.24567 | 35812 ft | 527 kts | 145° |
| 2026-05-07 15:57 | 35.90032 | -91.21159 | 36084 ft | 527 kts | 144° |
| 2026-05-07 15:57 | 35.87620 | -91.17749 | 36345 ft | 527 kts | 144° |
| 2026-05-07 15:57 | 35.85213 | -91.14349 | 36610 ft | 527 kts | 145° |
| 2026-05-07 15:58 | 35.82802 | -91.10952 | 36854 ft | 527 kts | 145° |
| 2026-05-07 15:58 | 35.80388 | -91.07559 | 37083 ft | 527 kts | 145° |
| 2026-05-07 15:58 | 35.77973 | -91.04167 | 37163 ft | 525 kts | 145° |
| 2026-05-07 15:59 | 35.73186 | -90.97430 | 37166 ft | 521 kts | 145° |
| 2026-05-07 15:59 | 35.68412 | -90.90734 | 37164 ft | 520 kts | 145° |
| 2026-05-07 16:00 | 35.63644 | -90.84057 | 37167 ft | 519 kts | 145° |
| 2026-05-07 16:00 | 35.58870 | -90.77393 | 37169 ft | 519 kts | 145° |
| 2026-05-07 16:01 | 35.54089 | -90.70735 | 37163 ft | 519 kts | 145° |
| 2026-05-07 16:01 | 35.49303 | -90.64091 | 37097 ft | 519 kts | 145° |
| 2026-05-07 16:02 | 35.44559 | -90.57505 | 37150 ft | 519 kts | 145° |
| 2026-05-07 16:02 | 35.39773 | -90.50869 | 37161 ft | 519 kts | 145° |
| 2026-05-07 16:03 | 35.34993 | -90.44255 | 37152 ft | 518 kts | 145° |
| 2026-05-07 16:03 | 35.30210 | -90.37652 | 37149 ft | 518 kts | 146° |
| 2026-05-07 16:04 | 35.25424 | -90.31066 | 37149 ft | 517 kts | 146° |
| 2026-05-07 16:04 | 35.20638 | -90.24501 | 37115 ft | 517 kts | 146° |
| 2026-05-07 16:05 | 35.15853 | -90.17937 | 37130 ft | 517 kts | 146° |
| 2026-05-07 16:05 | 35.11066 | -90.11373 | 37141 ft | 517 kts | 146° |
| 2026-05-07 16:06 | 35.06282 | -90.04834 | 37150 ft | 516 kts | 146° |
| 2026-05-07 16:06 | 35.01517 | -89.98341 | 37115 ft | 516 kts | 146° |
| 2026-05-07 16:07 | 34.96754 | -89.91796 | 37111 ft | 515 kts | 145° |
| 2026-05-07 16:07 | 34.92023 | -89.85236 | 37131 ft | 515 kts | 145° |
| 2026-05-07 16:08 | 34.87284 | -89.78691 | 37137 ft | 514 kts | 145° |
| 2026-05-07 16:08 | 34.83336 | -89.73275 | 37138 ft | 514 kts | 146° |
| 2026-05-07 16:09 | 34.78590 | -89.66777 | 37136 ft | 514 kts | 146° |
| 2026-05-07 16:09 | 34.73841 | -89.60282 | 37134 ft | 513 kts | 145° |
| 2026-05-07 16:10 | 34.69111 | -89.53812 | 37110 ft | 511 kts | 145° |
| 2026-05-07 16:10 | 34.64382 | -89.47358 | 37126 ft | 511 kts | 146° |
| 2026-05-07 16:11 | 34.59651 | -89.40924 | 37126 ft | 510 kts | 146° |
| 2026-05-07 16:11 | 34.54917 | -89.34501 | 37126 ft | 510 kts | 146° |
| 2026-05-07 16:12 | 34.50186 | -89.28081 | 37127 ft | 510 kts | 146° |
| 2026-05-07 16:12 | 34.45486 | -89.21716 | 37080 ft | 510 kts | 145° |
| 2026-05-07 16:13 | 34.40758 | -89.15326 | 37110 ft | 509 kts | 145° |
| 2026-05-07 16:13 | 34.36030 | -89.08946 | 37120 ft | 508 kts | 145° |
| 2026-05-07 16:14 | 34.31301 | -89.02586 | 37122 ft | 508 kts | 145° |
| 2026-05-07 16:14 | 34.26578 | -88.96238 | 37126 ft | 508 kts | 145° |
| 2026-05-07 16:15 | 34.21844 | -88.89892 | 37124 ft | 507 kts | 146° |
| 2026-05-07 16:15 | 34.17125 | -88.83566 | 37096 ft | 507 kts | 144° |
| 2026-05-07 16:16 | 34.12432 | -88.77289 | 37118 ft | 506 kts | 144° |
| 2026-05-07 16:16 | 34.07706 | -88.70985 | 37114 ft | 506 kts | 145° |
| 2026-05-07 16:17 | 34.02977 | -88.64700 | 37111 ft | 506 kts | 145° |
| 2026-05-07 16:17 | 33.98247 | -88.58420 | 37094 ft | 506 kts | 145° |
| 2026-05-07 16:18 | 33.93527 | -88.52144 | 37036 ft | 504 kts | 144° |
| 2026-05-07 16:18 | 33.88831 | -88.45900 | 37037 ft | 501 kts | 144° |
| 2026-05-07 16:19 | 33.84147 | -88.39708 | 37065 ft | 500 kts | 144° |
| 2026-05-07 16:19 | 33.79466 | -88.33532 | 37072 ft | 499 kts | 144° |
| 2026-05-07 16:20 | 33.74792 | -88.27376 | 37075 ft | 499 kts | 145° |
| 2026-05-07 16:20 | 33.70112 | -88.21229 | 37071 ft | 498 kts | 145° |
| 2026-05-07 16:21 | 33.65431 | -88.15087 | 37034 ft | 498 kts | 144° |
| 2026-05-07 16:21 | 33.60763 | -88.08964 | 37023 ft | 497 kts | 144° |
| 2026-05-07 16:22 | 33.56124 | -88.02890 | 37040 ft | 497 kts | 144° |
| 2026-05-07 16:22 | 33.51455 | -87.96791 | 37058 ft | 496 kts | 144° |
| 2026-05-07 16:23 | 33.46781 | -87.90701 | 37062 ft | 496 kts | 144° |
| 2026-05-07 16:23 | 33.42104 | -87.84614 | 37068 ft | 496 kts | 144° |
| 2026-05-07 16:24 | 33.37426 | -87.78525 | 37071 ft | 496 kts | 144° |
| 2026-05-07 16:24 | 33.32748 | -87.72455 | 37086 ft | 496 kts | 144° |
| 2026-05-07 16:25 | 33.28068 | -87.66399 | 37084 ft | 496 kts | 144° |
| 2026-05-07 16:25 | 33.23394 | -87.60344 | 37087 ft | 496 kts | 144° |
| 2026-05-07 16:26 | 33.18747 | -87.54327 | 37086 ft | 496 kts | 144° |
| 2026-05-07 16:26 | 33.14064 | -87.48291 | 37083 ft | 495 kts | 144° |
| 2026-05-07 16:27 | 33.09367 | -87.42280 | 37050 ft | 495 kts | 144° |
| 2026-05-07 16:27 | 33.04672 | -87.36266 | 37055 ft | 496 kts | 144° |
| 2026-05-07 16:28 | 32.99990 | -87.30247 | 37030 ft | 496 kts | 144° |
| 2026-05-07 16:28 | 32.95293 | -87.24225 | 37042 ft | 495 kts | 144° |
| 2026-05-07 16:29 | 32.90592 | -87.18228 | 37035 ft | 495 kts | 144° |
| 2026-05-07 16:29 | 32.85896 | -87.12235 | 37047 ft | 495 kts | 144° |
| 2026-05-07 16:30 | 32.81203 | -87.06253 | 37026 ft | 494 kts | 144° |
| 2026-05-07 16:30 | 32.76510 | -87.00291 | 37028 ft | 493 kts | 144° |
| 2026-05-07 16:31 | 32.71827 | -86.94344 | 37011 ft | 493 kts | 144° |
| 2026-05-07 16:31 | 32.67176 | -86.88439 | 37009 ft | 492 kts | 144° |
| 2026-05-07 16:32 | 32.62500 | -86.82524 | 37008 ft | 491 kts | 144° |
| 2026-05-07 16:32 | 32.57825 | -86.76613 | 37004 ft | 491 kts | 144° |
| 2026-05-07 16:33 | 32.53155 | -86.70724 | 36986 ft | 489 kts | 143° |
| 2026-05-07 16:33 | 32.48485 | -86.64850 | 37006 ft | 489 kts | 143° |
| 2026-05-07 16:34 | 32.43816 | -86.59005 | 37015 ft | 488 kts | 143° |
| 2026-05-07 16:34 | 32.39157 | -86.53167 | 37016 ft | 487 kts | 143° |
| 2026-05-07 16:35 | 32.34540 | -86.47372 | 37020 ft | 487 kts | 143° |
| 2026-05-07 16:35 | 32.29865 | -86.41497 | 37046 ft | 487 kts | 143° |
| 2026-05-07 16:36 | 32.25242 | -86.35720 | 37029 ft | 486 kts | 143° |
| 2026-05-07 16:36 | 32.20464 | -86.30149 | 37030 ft | 478 kts | 149° |
| 2026-05-07 16:37 | 32.15448 | -86.24994 | 37019 ft | 478 kts | 149° |
| 2026-05-07 16:37 | 32.10444 | -86.19817 | 37001 ft | 478 kts | 149° |
| 2026-05-07 16:38 | 32.05440 | -86.14649 | 37003 ft | 478 kts | 149° |
| 2026-05-07 16:38 | 32.00428 | -86.09498 | 36980 ft | 478 kts | 148° |
| 2026-05-07 16:39 | 31.95411 | -86.04353 | 37017 ft | 477 kts | 148° |
| 2026-05-07 16:39 | 31.90436 | -85.99250 | 37029 ft | 477 kts | 148° |
| 2026-05-07 16:40 | 31.85427 | -85.94118 | 37028 ft | 477 kts | 148° |
| 2026-05-07 16:40 | 31.80423 | -85.89001 | 37024 ft | 477 kts | 148° |
| 2026-05-07 16:41 | 31.75414 | -85.83884 | 37013 ft | 477 kts | 148° |
| 2026-05-07 16:41 | 31.70435 | -85.78737 | 36992 ft | 477 kts | 147° |
| 2026-05-07 16:42 | 31.65476 | -85.73588 | 36999 ft | 475 kts | 147° |
| 2026-05-07 16:42 | 31.60514 | -85.68466 | 37015 ft | 474 kts | 147° |
| 2026-05-07 16:43 | 31.55552 | -85.63367 | 37022 ft | 474 kts | 148° |
| 2026-05-07 16:43 | 31.50596 | -85.58286 | 37024 ft | 473 kts | 148° |
| 2026-05-07 16:44 | 31.45640 | -85.53205 | 37026 ft | 473 kts | 147° |
| 2026-05-07 16:44 | 31.40682 | -85.48125 | 37059 ft | 473 kts | 146° |
| 2026-05-07 16:45 | 31.35727 | -85.43053 | 37066 ft | 473 kts | 146° |
| 2026-05-07 16:45 | 31.30768 | -85.37975 | 37062 ft | 474 kts | 146° |
| 2026-05-07 16:46 | 31.25789 | -85.32897 | 37055 ft | 475 kts | 146° |
| 2026-05-07 16:46 | 31.20827 | -85.27857 | 36994 ft | 475 kts | 146° |
| 2026-05-07 16:47 | 31.15832 | -85.22781 | 36999 ft | 476 kts | 146° |
| 2026-05-07 16:47 | 31.10830 | -85.17699 | 36976 ft | 477 kts | 146° |
| 2026-05-07 16:48 | 31.05814 | -85.12610 | 36991 ft | 479 kts | 146° |
| 2026-05-07 16:48 | 31.00783 | -85.07513 | 37002 ft | 479 kts | 146° |
| 2026-05-07 16:49 | 30.95748 | -85.02421 | 37005 ft | 479 kts | 146° |
| 2026-05-07 16:49 | 30.90708 | -84.97328 | 37002 ft | 480 kts | 146° |
| 2026-05-07 16:50 | 30.85660 | -84.92243 | 36986 ft | 480 kts | 146° |
| 2026-05-07 16:50 | 30.80628 | -84.87187 | 36982 ft | 482 kts | 146° |
| 2026-05-07 16:51 | 30.75540 | -84.82078 | 36987 ft | 484 kts | 146° |
| 2026-05-07 16:51 | 30.70440 | -84.76958 | 36992 ft | 485 kts | 146° |
| 2026-05-07 16:52 | 30.65330 | -84.71833 | 36994 ft | 485 kts | 146° |
| 2026-05-07 16:52 | 30.60211 | -84.66722 | 37014 ft | 486 kts | 146° |
| 2026-05-07 16:53 | 30.55074 | -84.61599 | 37010 ft | 487 kts | 146° |
| 2026-05-07 16:53 | 30.49931 | -84.56477 | 37009 ft | 488 kts | 146° |
| 2026-05-07 16:54 | 30.44784 | -84.51350 | 37013 ft | 488 kts | 146° |
| 2026-05-07 16:54 | 30.39631 | -84.46232 | 37014 ft | 488 kts | 146° |
| 2026-05-07 16:55 | 30.34504 | -84.41146 | 37021 ft | 488 kts | 146° |
| 2026-05-07 16:55 | 30.29346 | -84.36024 | 37066 ft | 488 kts | 146° |
| 2026-05-07 16:56 | 30.24187 | -84.30904 | 37039 ft | 489 kts | 146° |
| 2026-05-07 16:56 | 30.16447 | -84.23232 | 37019 ft | 489 kts | 146° |
| 2026-05-07 16:57 | 30.11278 | -84.18124 | 37039 ft | 489 kts | 146° |
| 2026-05-07 16:57 | 30.06096 | -84.13025 | 37043 ft | 489 kts | 147° |
| 2026-05-07 16:58 | 30.00916 | -84.07927 | 37048 ft | 489 kts | 146° |
| 2026-05-07 16:58 | 29.95739 | -84.02825 | 37043 ft | 489 kts | 146° |
| 2026-05-07 16:59 | 29.90549 | -83.97722 | 37055 ft | 490 kts | 146° |
| 2026-05-07 16:59 | 29.85813 | -83.93079 | 37060 ft | 490 kts | 146° |
| 2026-05-07 17:00 | 29.81530 | -83.89148 | 36684 ft | 482 kts | 154° |
| 2026-05-07 17:00 | 29.78514 | -83.87116 | 36003 ft | 477 kts | 159° |
| 2026-05-07 17:00 | 29.77181 | -83.86258 | 35699 ft | 477 kts | 159° |
| 2026-05-07 17:01 | 29.75182 | -83.84976 | 35263 ft | 477 kts | 159° |
| 2026-05-07 17:01 | 29.73731 | -83.84047 | 34950 ft | 477 kts | 159° |
| 2026-05-07 17:01 | 29.71618 | -83.82694 | 34580 ft | 475 kts | 159° |
| 2026-05-07 17:01 | 29.68748 | -83.80851 | 34140 ft | 471 kts | 159° |
| 2026-05-07 17:02 | 29.65904 | -83.79018 | 33629 ft | 466 kts | 158° |
| 2026-05-07 17:02 | 29.63084 | -83.77201 | 33121 ft | 462 kts | 158° |
| 2026-05-07 17:02 | 29.60298 | -83.75407 | 32617 ft | 458 kts | 158° |
| 2026-05-07 17:02 | 29.57523 | -83.73620 | 32123 ft | 455 kts | 158° |
| 2026-05-07 17:03 | 29.54773 | -83.71852 | 31637 ft | 451 kts | 158° |
| 2026-05-07 17:03 | 29.52058 | -83.70108 | 31165 ft | 448 kts | 158° |
| 2026-05-07 17:03 | 29.49348 | -83.68367 | 30697 ft | 445 kts | 158° |
| 2026-05-07 17:03 | 29.46657 | -83.66642 | 30232 ft | 441 kts | 159° |
| 2026-05-07 17:04 | 29.43987 | -83.64934 | 29718 ft | 438 kts | 159° |
| 2026-05-07 17:04 | 29.41334 | -83.63238 | 29202 ft | 435 kts | 159° |
| 2026-05-07 17:04 | 29.38738 | -83.61578 | 28724 ft | 432 kts | 158° |
| 2026-05-07 17:04 | 29.36151 | -83.59926 | 28250 ft | 428 kts | 159° |
| 2026-05-07 17:05 | 29.33505 | -83.58578 | 27795 ft | 415 kts | 169° |
| 2026-05-07 17:05 | 29.30892 | -83.57671 | 27375 ft | 410 kts | 171° |
| 2026-05-07 17:05 | 29.28340 | -83.56815 | 26976 ft | 407 kts | 171° |
| 2026-05-07 17:05 | 29.25632 | -83.55900 | 26562 ft | 404 kts | 171° |
| 2026-05-07 17:06 | 29.22945 | -83.54988 | 26143 ft | 402 kts | 171° |
| 2026-05-07 17:06 | 29.20307 | -83.54090 | 25730 ft | 399 kts | 171° |
| 2026-05-07 17:06 | 29.17676 | -83.53198 | 25311 ft | 396 kts | 171° |
| 2026-05-07 17:06 | 29.15041 | -83.52304 | 24879 ft | 395 kts | 171° |
| 2026-05-07 17:07 | 29.12472 | -83.51433 | 24461 ft | 392 kts | 171° |
| 2026-05-07 17:07 | 29.09882 | -83.50557 | 24054 ft | 390 kts | 171° |
| 2026-05-07 17:07 | 29.07360 | -83.49707 | 23631 ft | 388 kts | 170° |
| 2026-05-07 17:07 | 29.04853 | -83.48862 | 23139 ft | 385 kts | 170° |
| 2026-05-07 17:08 | 29.02292 | -83.47999 | 22680 ft | 383 kts | 170° |
| 2026-05-07 17:08 | 28.99750 | -83.47144 | 22227 ft | 380 kts | 170° |
| 2026-05-07 17:08 | 28.97237 | -83.46221 | 21780 ft | 381 kts | 164° |
| 2026-05-07 17:08 | 28.94855 | -83.45005 | 21348 ft | 381 kts | 161° |
| 2026-05-07 17:09 | 28.92463 | -83.43763 | 20921 ft | 378 kts | 161° |
| 2026-05-07 17:09 | 28.90079 | -83.42526 | 20503 ft | 376 kts | 161° |
| 2026-05-07 17:09 | 28.87701 | -83.41295 | 20091 ft | 373 kts | 162° |
| 2026-05-07 17:09 | 28.85340 | -83.40078 | 19677 ft | 371 kts | 162° |
| 2026-05-07 17:10 | 28.82997 | -83.38873 | 19286 ft | 369 kts | 162° |
| 2026-05-07 17:10 | 28.80664 | -83.37672 | 18896 ft | 367 kts | 161° |
| 2026-05-07 17:10 | 28.78422 | -83.36513 | 18516 ft | 365 kts | 161° |
| 2026-05-07 17:10 | 28.76119 | -83.35319 | 18112 ft | 363 kts | 161° |
| 2026-05-07 17:11 | 28.73827 | -83.34133 | 17714 ft | 360 kts | 161° |
| 2026-05-07 17:11 | 28.71560 | -83.32963 | 17327 ft | 357 kts | 161° |
| 2026-05-07 17:11 | 28.69303 | -83.31802 | 16962 ft | 354 kts | 161° |
| 2026-05-07 17:11 | 28.67067 | -83.30654 | 16594 ft | 351 kts | 161° |
| 2026-05-07 17:12 | 28.64848 | -83.29514 | 16235 ft | 348 kts | 161° |
| 2026-05-07 17:12 | 28.62647 | -83.28383 | 15854 ft | 345 kts | 161° |
| 2026-05-07 17:12 | 28.60469 | -83.27262 | 15454 ft | 342 kts | 161° |
| 2026-05-07 17:12 | 28.58305 | -83.26149 | 15060 ft | 340 kts | 161° |
| 2026-05-07 17:13 | 28.56157 | -83.25046 | 14682 ft | 336 kts | 161° |
| 2026-05-07 17:13 | 28.54039 | -83.23956 | 14265 ft | 333 kts | 160° |
| 2026-05-07 17:13 | 28.51940 | -83.22877 | 13831 ft | 330 kts | 160° |
| 2026-05-07 17:13 | 28.49887 | -83.21823 | 13346 ft | 327 kts | 160° |
| 2026-05-07 17:14 | 28.47830 | -83.20769 | 12963 ft | 320 kts | 160° |
| 2026-05-07 17:14 | 28.45833 | -83.19748 | 12660 ft | 312 kts | 160° |
| 2026-05-07 17:14 | 28.43866 | -83.18743 | 12240 ft | 308 kts | 160° |
| 2026-05-07 17:14 | 28.41918 | -83.17749 | 11813 ft | 306 kts | 160° |
| 2026-05-07 17:15 | 28.39983 | -83.16762 | 11368 ft | 303 kts | 160° |
| 2026-05-07 17:15 | 28.38065 | -83.15786 | 10932 ft | 301 kts | 160° |
| 2026-05-07 17:15 | 28.36154 | -83.14825 | 10484 ft | 299 kts | 160° |
| 2026-05-07 17:15 | 28.34260 | -83.13878 | 10095 ft | 297 kts | 160° |
| 2026-05-07 17:16 | 28.32368 | -83.12935 | 9978 ft | 296 kts | 160° |
| 2026-05-07 17:16 | 28.30477 | -83.11994 | 10001 ft | 297 kts | 160° |
| 2026-05-07 17:16 | 28.28590 | -83.11034 | 10001 ft | 299 kts | 156° |
| 2026-05-07 17:16 | 28.26858 | -83.09708 | 9940 ft | 302 kts | 143° |
| 2026-05-07 17:17 | 28.25294 | -83.08117 | 9540 ft | 302 kts | 135° |
| 2026-05-07 17:17 | 28.24237 | -83.06050 | 9165 ft | 305 kts | 113° |
| 2026-05-07 17:17 | 28.23611 | -83.03746 | 8755 ft | 306 kts | 105° |
| 2026-05-07 17:17 | 28.23104 | -83.01406 | 8360 ft | 305 kts | 105° |
| 2026-05-07 17:18 | 28.22619 | -82.99102 | 7984 ft | 303 kts | 104° |
| 2026-05-07 17:18 | 28.22131 | -82.96756 | 7572 ft | 300 kts | 104° |
| 2026-05-07 17:18 | 28.21653 | -82.94466 | 7136 ft | 297 kts | 104° |
| 2026-05-07 17:18 | 28.21177 | -82.92196 | 6658 ft | 296 kts | 104° |
| 2026-05-07 17:19 | 28.20708 | -82.89965 | 6152 ft | 293 kts | 104° |
| 2026-05-07 17:19 | 28.20236 | -82.87726 | 5646 ft | 290 kts | 104° |
| 2026-05-07 17:19 | 28.19793 | -82.85526 | 5243 ft | 281 kts | 102° |
| 2026-05-07 17:19 | 28.19437 | -82.83404 | 4965 ft | 269 kts | 100° |
| 2026-05-07 17:20 | 28.19126 | -82.81345 | 4670 ft | 259 kts | 99° |
| 2026-05-07 17:20 | 28.18833 | -82.79357 | 4376 ft | 254 kts | 101° |
| 2026-05-07 17:20 | 28.18540 | -82.77374 | 4080 ft | 254 kts | 102° |
| 2026-05-07 17:20 | 28.17998 | -82.75505 | 3782 ft | 247 kts | 122° |
| 2026-05-07 17:21 | 28.16898 | -82.74065 | 3507 ft | 240 kts | 145° |
| 2026-05-07 17:21 | 28.15443 | -82.73221 | 3220 ft | 233 kts | 165° |
| 2026-05-07 17:21 | 28.13888 | -82.72797 | 3017 ft | 226 kts | 173° |
| 2026-05-07 17:21 | 28.12368 | -82.72520 | 3005 ft | 217 kts | 174° |
| 2026-05-07 17:22 | 28.10891 | -82.72269 | 3009 ft | 213 kts | 175° |
| 2026-05-07 17:22 | 28.09477 | -82.72025 | 3004 ft | 199 kts | 174° |
| 2026-05-07 17:22 | 28.08142 | -82.71794 | 2967 ft | 192 kts | 175° |
| 2026-05-07 17:22 | 28.06819 | -82.71567 | 2773 ft | 191 kts | 174° |
| 2026-05-07 17:23 | 28.05511 | -82.71342 | 2558 ft | 190 kts | 174° |
| 2026-05-07 17:23 | 28.04234 | -82.71121 | 2309 ft | 185 kts | 175° |
| 2026-05-07 17:23 | 28.02985 | -82.70904 | 2075 ft | 175 kts | 175° |
| 2026-05-07 17:23 | 28.01810 | -82.70701 | 1840 ft | 169 kts | 174° |
| 2026-05-07 17:24 | 28.00696 | -82.70509 | 1646 ft | 160 kts | 175° |
| 2026-05-07 17:24 | 27.99620 | -82.70324 | 1435 ft | 154 kts | 176° |
| 2026-05-07 17:24 | 27.98582 | -82.70145 | 1250 ft | 149 kts | 174° |
| 2026-05-07 17:24 | 27.97583 | -82.69972 | 1062 ft | 141 kts | 176° |
| 2026-05-07 17:25 | 27.96624 | -82.69807 | 885 ft | 137 kts | 176° |
| 2026-05-07 17:25 | 27.95688 | -82.69646 | 697 ft | 135 kts | 176° |
| 2026-05-07 17:25 | 27.94761 | -82.69481 | 476 ft | 135 kts | 178° |
| 2026-05-07 17:25 | 27.93842 | -82.69317 | 331 ft | 135 kts | 179° |
| 2026-05-07 17:26 | 27.92904 | -82.69163 | 181 ft | 136 kts | 175° |
| 2026-05-07 17:26 | 27.91968 | -82.69000 | 26 ft | 134 kts | 178° |
| 2026-05-07 17:26 | 27.91214 | -82.68874 | 22 ft | 70 kts | 171° |
| 2026-05-07 17:26 | 27.90912 | -82.68822 | 22 ft | 36 kts | 171° |
| 2026-05-07 17:27 | 27.90683 | -82.68783 | 25 ft | 30 kts | 172° |
| 2026-05-07 17:27 | 27.90562 | -82.68778 | 25 ft | 11 kts | 219° |
| 2026-05-07 17:27 | 27.90545 | -82.68862 | 24 ft | 9 kts | 262° |
| 2026-05-07 17:27 | 27.90562 | -82.68922 | 25 ft | 9 kts | 333° |
| 2026-05-07 17:28 | 27.90628 | -82.68930 | 24 ft | 10 kts | 353° |
| 2026-05-07 17:28 | 27.90699 | -82.68943 | 24 ft | 11 kts | 351° |
| 2026-05-07 17:28 | 27.90775 | -82.68955 | 24 ft | 11 kts | 352° |
| 2026-05-07 17:28 | 27.90839 | -82.68989 | 24 ft | 10 kts | 284° |
| 2026-05-07 17:29 | 27.90838 | -82.69074 | 24 ft | 11 kts | 268° |
| 2026-05-07 17:29 | 27.90835 | -82.69165 | 24 ft | 11 kts | 269° |
| 2026-05-07 17:29 | 27.90797 | -82.69210 | 24 ft | 7 kts | 174° |
| 2026-05-07 17:29 | 27.90770 | -82.69208 | 24 ft | 2 kts | 178° |
| 2026-05-07 17:30 | 27.90761 | -82.69208 | 24 ft | 1 kts | 176° |
| 2026-05-07 17:30 | 27.90755 | -82.69207 | 26 ft | 0 kts | 177° |